Thunder radar more information blitzortung!


Löydät sääaseman tiedot myös:

European Weather Network

Finland Weather Exchange

Weather Underground

AWEKAS



Weather Underground säähistoriasivu

Päivittäin yhteenveto Maaliskuu 23, 2017 Yksiköt:  Molemmat    Englantilaiset   Metriset
« Edellinen Päivä
Seuraava Päivä »
Päivittäin Viikoittain Kuukausittain Vuosittain Mukautettu
  Korkea: Matala: Keskiarvo:
Lämpötila: TemperatureC °F /  -17.8 °C -0.7 °F /  -18.2 °C 1.3 °F /  -17.1 °C
Kastepiste: DewpointC °F /  -17.8 °C -5.5 °F /  -20.8 °C -3.2 °F /  -19.6 °C
Kosteus: Humidity % 57 % 71 %
Tuulen nopeus: WindSpeedKMH mph /  0 km/h - 5.4 mph /  8.7 km/h
Tuulenpuuska: WindSpeedGustKMH mph /  0 km/h - -
Tuuli:- - WSW
Ilmanpaine: PressurehPa in /  0 hPa 1002.6 in /  33948 hPa -
Sade: 0.0 in /  0 mm    
Historical Graphs
 
 
Taulukkotiedot Maaliskuu 23, 2017
Aika Lämpötila Kastepiste Ilmanpaine Tuuli Tuulen nopeus Tuulenpuuska Kosteus Sademäärä (tunneittain)
TemperatureC °F /  -17.8 °C DewpointC °F /  -17.8 °C PressurehPa in /  0 hPa Calm     Humidity % HourlyPrecipMM in /  0 mm
00:00 1.7 °F /  -16.8 °C -1.4 °F /  -18.6 °C 1002.6 in /  33948 hPa SW 3.2 mph /  5.1 km/h 9.7 mph /  15.6 km/h 80 % 0.0 in /  0 mm
00:15 1.8 °F /  -16.8 °C -1.4 °F /  -18.6 °C 1002.9 in /  33958.2 hPa WSW 3.2 mph /  5.1 km/h 11.3 mph /  18.2 km/h 79 % 0.0 in /  0 mm
00:30 1.8 °F /  -16.8 °C -1.6 °F /  -18.7 °C 1002.9 in /  33958.2 hPa SW 4.8 mph /  7.7 km/h 11.3 mph /  18.2 km/h 78 % 0.0 in /  0 mm
00:45 1.7 °F /  -16.8 °C -1.7 °F /  -18.7 °C 1003.3 in /  33971.7 hPa SSW 3.2 mph /  5.1 km/h 11.3 mph /  18.2 km/h 78 % 0.0 in /  0 mm
01:00 1.6 °F /  -16.9 °C -1.7 °F /  -18.7 °C 1003.6 in /  33981.9 hPa SW 4.8 mph /  7.7 km/h 17.7 mph /  28.5 km/h 79 % 0.0 in /  0 mm
01:15 1.4 °F /  -17 °C -1.8 °F /  -18.8 °C 1003.6 in /  33981.9 hPa SW 4.8 mph /  7.7 km/h 12.9 mph /  20.8 km/h 79 % 0.0 in /  0 mm
01:30 1.3 °F /  -17.1 °C -1.7 °F /  -18.7 °C 1003.9 in /  33992.1 hPa SW 4.8 mph /  7.7 km/h 16.1 mph /  25.9 km/h 80 % 0.0 in /  0 mm
01:45 1.3 °F /  -17.1 °C -1.8 °F /  -18.8 °C 1004.3 in /  34005.6 hPa WSW 4.8 mph /  7.7 km/h 16.1 mph /  25.9 km/h 80 % 0.0 in /  0 mm
02:00 1.2 °F /  -17.1 °C -1.9 °F /  -18.8 °C 1004.3 in /  34005.6 hPa WSW 4.8 mph /  7.7 km/h 12.9 mph /  20.8 km/h 80 % 0.0 in /  0 mm
02:15 1.1 °F /  -17.2 °C -2.0 °F /  -18.9 °C 1004.6 in /  34015.8 hPa SW 4.8 mph /  7.7 km/h 11.3 mph /  18.2 km/h 80 % 0.0 in /  0 mm
02:30 0.9 °F /  -17.3 °C -2.0 °F /  -18.9 °C 1005.0 in /  34029.3 hPa SSW 3.2 mph /  5.1 km/h 9.7 mph /  15.6 km/h 81 % 0.0 in /  0 mm
02:45 0.8 °F /  -17.3 °C -2.1 °F /  -18.9 °C 1005.3 in /  34039.5 hPa SW 4.8 mph /  7.7 km/h 12.9 mph /  20.8 km/h 81 % 0.0 in /  0 mm
03:00 0.7 °F /  -17.4 °C -2.1 °F /  -18.9 °C 1005.3 in /  34039.5 hPa WSW 4.8 mph /  7.7 km/h 11.3 mph /  18.2 km/h 82 % 0.0 in /  0 mm
03:15 0.6 °F /  -17.4 °C -1.9 °F /  -18.8 °C 1005.6 in /  34049.6 hPa WSW 3.2 mph /  5.1 km/h 14.5 mph /  23.3 km/h 83 % 0.0 in /  0 mm
03:30 0.5 °F /  -17.5 °C -2.1 °F /  -18.9 °C 1006.0 in /  34063.2 hPa WSW 4.8 mph /  7.7 km/h 11.3 mph /  18.2 km/h 83 % 0.0 in /  0 mm
03:45 0.4 °F /  -17.6 °C -2.2 °F /  -19 °C 1006.0 in /  34063.2 hPa SW 4.8 mph /  7.7 km/h 14.5 mph /  23.3 km/h 83 % 0.0 in /  0 mm
04:15 0.2 °F /  -17.7 °C -2.3 °F /  -19.1 °C 1006.3 in /  34073.3 hPa WSW 4.8 mph /  7.7 km/h 20.9 mph /  33.6 km/h 83 % 0.0 in /  0 mm
04:30 0.1 °F /  -17.7 °C -2.4 °F /  -19.1 °C 1006.7 in /  34086.9 hPa WSW 3.2 mph /  5.1 km/h 14.5 mph /  23.3 km/h 83 % 0.0 in /  0 mm
04:45 0.1 °F /  -17.7 °C -2.5 °F /  -19.2 °C 1006.7 in /  34086.9 hPa WSW 4.8 mph /  7.7 km/h 12.9 mph /  20.8 km/h 83 % 0.0 in /  0 mm
05:00 -0.1 °F /  -17.8 °C -2.6 °F /  -19.2 °C 1007.0 in /  34097 hPa SW 3.2 mph /  5.1 km/h 12.9 mph /  20.8 km/h 83 % 0.0 in /  0 mm
05:15 -0.2 °F /  -17.9 °C -2.6 °F /  -19.2 °C 1007.3 in /  34107.2 hPa SW 3.2 mph /  5.1 km/h 11.3 mph /  18.2 km/h 84 % 0.0 in /  0 mm
05:30 -0.3 °F /  -17.9 °C -2.7 °F /  -19.3 °C 1007.7 in /  34120.7 hPa West 3.2 mph /  5.1 km/h 9.7 mph /  15.6 km/h 84 % 0.0 in /  0 mm
05:45 -0.3 °F /  -17.9 °C -2.8 °F /  -19.3 °C 1007.7 in /  34120.7 hPa West 4.8 mph /  7.7 km/h 17.7 mph /  28.5 km/h 83 % 0.0 in /  0 mm
06:00 -0.3 °F /  -17.9 °C -3.0 °F /  -19.4 °C 1008.0 in /  34130.9 hPa WSW 4.8 mph /  7.7 km/h 14.5 mph /  23.3 km/h 82 % 0.0 in /  0 mm
06:15 -0.5 °F /  -18.1 °C -3.2 °F /  -19.6 °C 1008.0 in /  34130.9 hPa SW 3.2 mph /  5.1 km/h 9.7 mph /  15.6 km/h 82 % 0.0 in /  0 mm
06:30 -0.7 °F /  -18.2 °C -3.4 °F /  -19.7 °C 1008.4 in /  34144.4 hPa SSW 3.2 mph /  5.1 km/h 9.7 mph /  15.6 km/h 82 % 0.0 in /  0 mm
06:45 -0.7 °F /  -18.2 °C -3.4 °F /  -19.7 °C 1008.7 in /  34154.6 hPa WSW 4.8 mph /  7.7 km/h 17.7 mph /  28.5 km/h 82 % 0.0 in /  0 mm
07:00 -0.7 °F /  -18.2 °C -3.4 °F /  -19.7 °C 1008.7 in /  34154.6 hPa SW 3.2 mph /  5.1 km/h 17.7 mph /  28.5 km/h 82 % 0.0 in /  0 mm
07:15 -0.7 °F /  -18.2 °C -3.4 °F /  -19.7 °C 1009.0 in /  34164.7 hPa WSW 3.2 mph /  5.1 km/h 8.0 mph /  12.9 km/h 82 % 0.0 in /  0 mm
07:30 -0.7 °F /  -18.2 °C -3.5 °F /  -19.7 °C 1009.0 in /  34164.7 hPa WSW 3.2 mph /  5.1 km/h 12.9 mph /  20.8 km/h 81 % 0.0 in /  0 mm
07:45 -0.5 °F /  -18.1 °C -3.4 °F /  -19.7 °C 1009.4 in /  34178.3 hPa SSW 4.8 mph /  7.7 km/h 12.9 mph /  20.8 km/h 81 % 0.0 in /  0 mm
08:00 -0.3 °F /  -17.9 °C -3.4 °F /  -19.7 °C 1009.4 in /  34178.3 hPa WSW 4.8 mph /  7.7 km/h 16.1 mph /  25.9 km/h 80 % 0.0 in /  0 mm
08:15 -0.1 °F /  -17.8 °C -3.5 °F /  -19.7 °C 1009.4 in /  34178.3 hPa SSW 3.2 mph /  5.1 km/h 11.3 mph /  18.2 km/h 78 % 0.0 in /  0 mm
08:30 0.2 °F /  -17.7 °C -3.3 °F /  -19.6 °C 1009.7 in /  34188.4 hPa SW 6.4 mph /  10.3 km/h 19.3 mph /  31.1 km/h 77 % 0.0 in /  0 mm
08:45 0.5 °F /  -17.5 °C -3.2 °F /  -19.6 °C 1009.7 in /  34188.4 hPa SSW 4.8 mph /  7.7 km/h 16.1 mph /  25.9 km/h 76 % 0.0 in /  0 mm
09:00 0.8 °F /  -17.3 °C -3.3 °F /  -19.6 °C 1009.7 in /  34188.4 hPa SSW 6.4 mph /  10.3 km/h 16.1 mph /  25.9 km/h 74 % 0.0 in /  0 mm
09:15 1.1 °F /  -17.2 °C -3.2 °F /  -19.6 °C 1009.7 in /  34188.4 hPa SW 6.4 mph /  10.3 km/h 17.7 mph /  28.5 km/h 73 % 0.0 in /  0 mm
09:30 1.4 °F /  -17 °C -3.1 °F /  -19.5 °C 1009.7 in /  34188.4 hPa SW 8.0 mph /  12.9 km/h 22.5 mph /  36.2 km/h 72 % 0.0 in /  0 mm
09:45 1.7 °F /  -16.8 °C -3.2 °F /  -19.6 °C 1009.7 in /  34188.4 hPa SW 8.0 mph /  12.9 km/h 19.3 mph /  31.1 km/h 70 % 0.0 in /  0 mm
10:00 2.2 °F /  -16.6 °C -3.3 °F /  -19.6 °C 1010.0 in /  34198.6 hPa SW 8.0 mph /  12.9 km/h 24.1 mph /  38.8 km/h 67 % 0.0 in /  0 mm
10:15 2.4 °F /  -16.4 °C -3.3 °F /  -19.6 °C 1010.0 in /  34198.6 hPa SW 9.7 mph /  15.6 km/h 22.5 mph /  36.2 km/h 66 % 0.0 in /  0 mm
10:30 2.7 °F /  -16.3 °C -3.3 °F /  -19.6 °C 1010.4 in /  34212.1 hPa SW 8.0 mph /  12.9 km/h 29.0 mph /  46.7 km/h 65 % 0.0 in /  0 mm
10:45 2.8 °F /  -16.2 °C -3.6 °F /  -19.8 °C 1010.0 in /  34198.6 hPa SW 6.4 mph /  10.3 km/h 19.3 mph /  31.1 km/h 63 % 0.0 in /  0 mm
11:00 3.0 °F /  -16.1 °C -3.6 °F /  -19.8 °C 1010.4 in /  34212.1 hPa SW 8.0 mph /  12.9 km/h 19.3 mph /  31.1 km/h 62 % 0.0 in /  0 mm
11:15 3.1 °F /  -16.1 °C -3.5 °F /  -19.7 °C 1010.4 in /  34212.1 hPa SW 8.0 mph /  12.9 km/h 24.1 mph /  38.8 km/h 62 % 0.0 in /  0 mm
11:30 3.2 °F /  -16 °C -3.4 °F /  -19.7 °C 1010.4 in /  34212.1 hPa SW 9.7 mph /  15.6 km/h 24.1 mph /  38.8 km/h 62 % 0.0 in /  0 mm
11:45 3.2 °F /  -16 °C -3.2 °F /  -19.6 °C 1010.7 in /  34222.3 hPa SW 8.0 mph /  12.9 km/h 19.3 mph /  31.1 km/h 63 % 0.0 in /  0 mm
12:00 3.2 °F /  -16 °C -3.2 °F /  -19.6 °C 1010.7 in /  34222.3 hPa WSW 11.3 mph /  18.2 km/h 29.0 mph /  46.7 km/h 63 % 0.0 in /  0 mm
12:15 3.4 °F /  -15.9 °C -2.7 °F /  -19.3 °C 1010.7 in /  34222.3 hPa WSW 8.0 mph /  12.9 km/h 19.3 mph /  31.1 km/h 64 % 0.0 in /  0 mm
12:30 3.4 °F /  -15.9 °C -3.6 °F /  -19.8 °C 1010.7 in /  34222.3 hPa SW 9.7 mph /  15.6 km/h 24.1 mph /  38.8 km/h 60 % 0.0 in /  0 mm
12:45 3.3 °F /  -15.9 °C -4.0 °F /  -20 °C 1011.1 in /  34235.8 hPa SW 6.4 mph /  10.3 km/h 22.5 mph /  36.2 km/h 59 % 0.0 in /  0 mm
13:00 2.8 °F /  -16.2 °C -3.8 °F /  -19.9 °C 1011.4 in /  34246 hPa SW 4.8 mph /  7.7 km/h 12.9 mph /  20.8 km/h 62 % 0.0 in /  0 mm
13:15 2.6 °F /  -16.3 °C -4.0 °F /  -20 °C 1011.4 in /  34246 hPa WSW 8.0 mph /  12.9 km/h 20.9 mph /  33.6 km/h 62 % 0.0 in /  0 mm
13:30 2.7 °F /  -16.3 °C -3.9 °F /  -19.9 °C 1011.4 in /  34246 hPa SW 8.0 mph /  12.9 km/h 19.3 mph /  31.1 km/h 62 % 0.0 in /  0 mm
13:45 3.1 °F /  -16.1 °C -3.7 °F /  -19.8 °C 1011.4 in /  34246 hPa SW 6.4 mph /  10.3 km/h 17.7 mph /  28.5 km/h 61 % 0.0 in /  0 mm
14:15 2.9 °F /  -16.2 °C -4.1 °F /  -20.1 °C 1011.4 in /  34246 hPa WSW 6.4 mph /  10.3 km/h 17.7 mph /  28.5 km/h 60 % 0.0 in /  0 mm
14:30 3.1 °F /  -16.1 °C -4.2 °F /  -20.1 °C 1011.7 in /  34256.2 hPa SSW 9.7 mph /  15.6 km/h 24.1 mph /  38.8 km/h 59 % 0.0 in /  0 mm
14:45 3.7 °F /  -15.7 °C -3.8 °F /  -19.9 °C 1011.7 in /  34256.2 hPa SSW 8.0 mph /  12.9 km/h 19.3 mph /  31.1 km/h 58 % 0.0 in /  0 mm
15:00 3.7 °F /  -15.7 °C -3.8 °F /  -19.9 °C 1011.7 in /  34256.2 hPa SW 8.0 mph /  12.9 km/h 20.9 mph /  33.6 km/h 58 % 0.0 in /  0 mm
15:15 3.8 °F /  -15.7 °C -3.7 °F /  -19.8 °C 1011.7 in /  34256.2 hPa SW 8.0 mph /  12.9 km/h 22.5 mph /  36.2 km/h 58 % 0.0 in /  0 mm
15:30 4.0 °F /  -15.6 °C -3.8 °F /  -19.9 °C 1011.7 in /  34256.2 hPa SW 8.0 mph /  12.9 km/h 17.7 mph /  28.5 km/h 57 % 0.0 in /  0 mm
15:45 3.8 °F /  -15.7 °C -3.9 °F /  -19.9 °C 1011.7 in /  34256.2 hPa SW 8.0 mph /  12.9 km/h 20.9 mph /  33.6 km/h 57 % 0.0 in /  0 mm
16:00 3.8 °F /  -15.7 °C -3.5 °F /  -19.7 °C 1012.1 in /  34269.7 hPa SW 8.0 mph /  12.9 km/h 25.7 mph /  41.4 km/h 59 % 0.0 in /  0 mm
16:15 3.8 °F /  -15.7 °C -3.5 °F /  -19.7 °C 1012.1 in /  34269.7 hPa SW 8.0 mph /  12.9 km/h 20.9 mph /  33.6 km/h 59 % 0.0 in /  0 mm
16:30 3.6 °F /  -15.8 °C -3.7 °F /  -19.8 °C 1011.7 in /  34256.2 hPa SW 8.0 mph /  12.9 km/h 19.3 mph /  31.1 km/h 59 % 0.0 in /  0 mm
16:45 3.3 °F /  -15.9 °C -3.9 °F /  -19.9 °C 1012.1 in /  34269.7 hPa SW 8.0 mph /  12.9 km/h 25.7 mph /  41.4 km/h 59 % 0.0 in /  0 mm
17:15 3.2 °F /  -16 °C -4.1 °F /  -20.1 °C 1012.1 in /  34269.7 hPa SW 6.4 mph /  10.3 km/h 16.1 mph /  25.9 km/h 59 % 0.0 in /  0 mm
17:30 3.0 °F /  -16.1 °C -4.5 °F /  -20.3 °C 1011.7 in /  34256.2 hPa SW 6.4 mph /  10.3 km/h 24.1 mph /  38.8 km/h 58 % 0.0 in /  0 mm
17:45 2.9 °F /  -16.2 °C -4.3 °F /  -20.2 °C 1012.1 in /  34269.7 hPa SW 6.4 mph /  10.3 km/h 19.3 mph /  31.1 km/h 59 % 0.0 in /  0 mm
18:00 2.7 °F /  -16.3 °C -4.6 °F /  -20.3 °C 1012.1 in /  34269.7 hPa SW 6.4 mph /  10.3 km/h 22.5 mph /  36.2 km/h 59 % 0.0 in /  0 mm
18:15 2.6 °F /  -16.3 °C -4.2 °F /  -20.1 °C 1012.1 in /  34269.7 hPa SW 6.4 mph /  10.3 km/h 19.3 mph /  31.1 km/h 61 % 0.0 in /  0 mm
18:30 2.4 °F /  -16.4 °C -3.5 °F /  -19.7 °C 1012.4 in /  34279.9 hPa West 8.0 mph /  12.9 km/h 22.5 mph /  36.2 km/h 65 % 0.0 in /  0 mm
18:45 1.5 °F /  -16.9 °C -2.8 °F /  -19.3 °C 1012.8 in /  34293.4 hPa NW 11.3 mph /  18.2 km/h 30.6 mph /  49.2 km/h 73 % 0.0 in /  0 mm
19:00 0.7 °F /  -17.4 °C -3.3 °F /  -19.6 °C 1012.4 in /  34279.9 hPa West 3.2 mph /  5.1 km/h 14.5 mph /  23.3 km/h 75 % 0.0 in /  0 mm
19:15 0.6 °F /  -17.4 °C -3.4 °F /  -19.7 °C 1012.8 in /  34293.4 hPa West 3.2 mph /  5.1 km/h 12.9 mph /  20.8 km/h 75 % 0.0 in /  0 mm
19:30 0.5 °F /  -17.5 °C -3.2 °F /  -19.6 °C 1012.8 in /  34293.4 hPa WSW 3.2 mph /  5.1 km/h 8.0 mph /  12.9 km/h 76 % 0.0 in /  0 mm
20:00 0.2 °F /  -17.7 °C -3.3 °F /  -19.6 °C 1012.8 in /  34293.4 hPa SW 1.6 mph /  2.6 km/h 9.7 mph /  15.6 km/h 77 % 0.0 in /  0 mm
20:15 0.1 °F /  -17.7 °C -3.3 °F /  -19.6 °C 1012.8 in /  34293.4 hPa WSW 1.6 mph /  2.6 km/h 11.3 mph /  18.2 km/h 78 % 0.0 in /  0 mm
20:30 -0.1 °F /  -17.8 °C -3.3 °F /  -19.6 °C 1013.1 in /  34303.6 hPa SW 1.6 mph /  2.6 km/h 6.4 mph /  10.3 km/h 79 % 0.0 in /  0 mm
20:45 -0.2 °F /  -17.9 °C -3.5 °F /  -19.7 °C 1013.1 in /  34303.6 hPa SW 3.2 mph /  5.1 km/h 9.7 mph /  15.6 km/h 78 % 0.0 in /  0 mm
21:00 -0.3 °F /  -17.9 °C -3.7 °F /  -19.8 °C 1013.1 in /  34303.6 hPa WSW 1.6 mph /  2.6 km/h 8.0 mph /  12.9 km/h 78 % 0.0 in /  0 mm
21:15 -0.3 °F /  -17.9 °C -3.5 °F /  -19.7 °C 1013.4 in /  34313.7 hPa SW 1.6 mph /  2.6 km/h 9.7 mph /  15.6 km/h 79 % 0.0 in /  0 mm
21:30 -0.3 °F /  -17.9 °C -3.7 °F /  -19.8 °C 1013.1 in /  34303.6 hPa WSW 3.2 mph /  5.1 km/h 17.7 mph /  28.5 km/h 78 % 0.0 in /  0 mm
21:45 -0.2 °F /  -17.9 °C -3.6 °F /  -19.8 °C 1013.4 in /  34313.7 hPa WSW 4.8 mph /  7.7 km/h 12.9 mph /  20.8 km/h 78 % 0.0 in /  0 mm
22:00 -0.2 °F /  -17.9 °C -3.8 °F /  -19.9 °C 1013.4 in /  34313.7 hPa West 3.2 mph /  5.1 km/h 12.9 mph /  20.8 km/h 77 % 0.0 in /  0 mm
22:15 -0.3 °F /  -17.9 °C -4.1 °F /  -20.1 °C 1013.4 in /  34313.7 hPa West 3.2 mph /  5.1 km/h 11.3 mph /  18.2 km/h 76 % 0.0 in /  0 mm
22:30 -0.3 °F /  -17.9 °C -4.4 °F /  -20.2 °C 1013.8 in /  34327.3 hPa NW 3.2 mph /  5.1 km/h 12.9 mph /  20.8 km/h 74 % 0.0 in /  0 mm
22:45 -0.1 °F /  -17.8 °C -4.7 °F /  -20.4 °C 1013.8 in /  34327.3 hPa West 4.8 mph /  7.7 km/h 16.1 mph /  25.9 km/h 71 % 0.0 in /  0 mm
23:00 0.0 °F /  -17.8 °C -5.0 °F /  -20.6 °C 1014.1 in /  34337.4 hPa West 4.8 mph /  7.7 km/h 14.5 mph /  23.3 km/h 69 % 0.0 in /  0 mm
23:15 -0.2 °F /  -17.9 °C -5.2 °F /  -20.7 °C 1014.1 in /  34337.4 hPa WNW 3.2 mph /  5.1 km/h 12.9 mph /  20.8 km/h 69 % 0.0 in /  0 mm
23:30 -0.4 °F /  -18 °C -5.4 °F /  -20.8 °C 1014.4 in /  34347.6 hPa WNW 3.2 mph /  5.1 km/h 12.9 mph /  20.8 km/h 69 % 0.0 in /  0 mm
23:45 -0.6 °F /  -18.1 °C -5.5 °F /  -20.8 °C 1014.4 in /  34347.6 hPa WNW 3.2 mph /  5.1 km/h 11.3 mph /  18.2 km/h 69 % 0.0 in /  0 mm
Esan sääasema
Terveisin Weather Underground - 2.75 mb

Alkuperäinen skripti  Jim McMurry - jmcmurry@mwt.net Sovitettu myös templatelle  Wim van der Kuil - Leuven-Template.eu

Laitteet joita käytämme:

Sääasema
Davis VP2

Sääasemaohjelma
Cumulus

Sääaseman tietokone
Asus EeePC

Palveluntarjoaja
Suncomet

Davis VP2

Cumulus

Asus EeePC

Suncomet